Date,TemperatureHighF,TemperatureAvgF,TemperatureLowF,DewpointHighF,DewpointAvgF,DewpointLowF,HumidityHigh,HumidityAvg,HumidityLow,PressureMaxIn,PressureMinIn,WindSpeedMaxMPH,WindSpeedAvgMPH,GustSpeedMaxMPH,PrecipitationSumIn
2012-1-1,43.4,26.0,14.0,10.5,-2.0,-19.6,69,33,14,30.84,30.47,2,1,13,0.00
2012-1-2,50.1,23.0,7.2,13.3,4.3,-3.6,73,51,11,31.05,30.38,2,0,8,0.00
2012-1-3,46.5,25.5,11.6,10.7,4.9,-0.2,66,46,14,30.72,30.27,3,1,19,0.00
2012-1-4,53.9,22.5,3.3,15.2,1.7,-6.4,68,47,8,31.07,30.38,1,0,7,0.00
2012-1-5,53.5,27.6,12.2,18.5,11.1,6.1,79,54,19,30.70,29.98,1,0,9,0.00
2012-1-6,44.2,23.0,11.1,12.1,7.4,2.7,79,55,22,30.40,29.97,2,0,11,0.00
2012-1-7,28.3,20.2,8.6,19.0,12.2,2.9,81,71,49,30.24,29.97,1,0,11,0.03
2012-1-8,33.3,12.0,0.5,10.1,0.6,-6.7,80,63,22,30.83,30.17,2,0,11,0.06
2012-1-9,43.4,19.1,4.5,19.5,7.8,-2.5,82,65,28,30.88,30.28,2,0,8,0.00
2012-1-10,49.6,23.5,7.7,14.0,5.4,-5.6,80,52,10,30.60,29.76,2,1,12,0.00
2012-1-11,24.7,14.9,1.2,11.3,-4.4,-21.7,78,43,24,30.47,29.77,5,2,28,0.02
2012-1-12,29.4,9.8,-8.2,-7.7,-14.6,-23.8,57,35,14,30.79,30.24,4,1,20,0.00
2012-1-13,35.5,15.0,-5.2,0.9,-9.8,-18.5,62,36,12,30.77,30.39,4,1,24,0.00
2012-1-14,44.4,25.3,6.0,6.0,0.2,-9.0,61,35,18,30.64,30.01,2,1,18,0.00
2012-1-15,42.1,26.7,11.4,14.3,2.0,-3.4,70,36,18,30.33,29.77,4,1,20,0.00
2012-1-16,23.6,19.3,8.1,18.8,13.0,-1.2,85,76,65,30.12,29.69,3,1,30,0.00
2012-1-17,18.0,9.4,1.8,2.8,-4.2,-8.9,67,54,40,30.66,30.15,3,2,17,0.01
2012-1-18,28.4,22.1,12.6,17.8,8.3,2.6,74,56,39,30.47,30.11,5,3,24,0.00
2012-1-19,42.7,34.1,25.6,24.0,20.6,13.3,74,58,44,30.12,29.73,4,2,18,0.16
2012-1-20,37.3,27.3,12.4,22.6,13.4,3.9,78,56,35,30.21,29.70,4,1,22,0.02
2012-1-21,39.0,28.2,18.8,24.9,15.9,2.2,87,62,33,30.07,29.36,2,1,17,0.01
2012-1-22,26.4,18.0,11.2,16.8,6.2,-7.6,82,61,31,30.32,29.42,6,2,31,0.11
2012-1-23,34.7,21.1,10.4,15.1,7.1,-6.4,71,55,34,30.35,29.86,3,1,19,0.05
2012-1-24,35.8,19.0,0.5,21.9,7.8,-6.1,82,64,32,30.58,29.90,1,0,11,0.05
2012-1-25,45.8,22.7,-0.4,12.4,2.7,-8.1,75,46,20,30.80,30.00,5,1,24,0.03
2012-1-26,41.4,27.8,12.2,20.9,7.1,-5.9,80,45,18,30.34,29.73,4,1,18,0.00
2012-1-27,27.0,15.1,-2.9,21.2,4.7,-12.1,83,65,33,30.68,29.74,3,1,16,0.15
2012-1-28,31.1,11.4,-7.8,-2.7,-8.2,-16.0,70,45,19,31.00,30.52,4,1,22,0.01
2012-1-29,42.0,22.1,6.3,15.0,6.6,-2.7,75,53,27,30.88,30.25,2,0,16,0.01
2012-1-30,42.9,27.7,17.1,8.0,4.2,-2.2,61,38,21,30.31,29.92,3,1,20,0.00
2012-1-31,38.6,21.3,6.8,6.3,-1.3,-10.8,67,41,16,30.50,29.94,2,0,12,0.00
2012-2-1,43.6,23.3,6.0,9.5,0.1,-12.1,67,42,11,30.65,30.02,2,0,14,0.00
2012-2-2,22.9,17.6,11.1,16.2,10.8,1.6,83,75,47,30.18,29.93,2,1,16,0.00
2012-2-3,20.7,13.2,-1.1,10.7,6.2,-8.2,82,73,57,30.71,30.13,2,1,17,0.01
2012-2-4,23.9,3.8,-10.9,8.5,-5.6,-18.5,76,65,46,31.10,30.63,3,1,12,0.00
2012-2-5,28.5,8.1,-8.0,13.9,-1.1,-15.8,80,67,37,31.05,30.39,3,1,13,0.03
2012-2-6,26.3,12.8,-2.0,15.0,6.1,-8.7,82,74,59,30.49,30.26,2,0,12,0.06
2012-2-7,32.9,9.1,-7.1,12.3,-1.8,-14.4,76,63,28,30.91,30.38,2,0,10,0.04
2012-2-8,36.2,20.6,-0.2,17.6,8.6,-7.8,75,60,37,30.75,30.09,3,2,18,0.01
2012-2-9,34.7,21.9,3.3,15.1,7.2,-3.7,72,55,28,30.46,30.06,3,1,17,0.00
2012-2-10,35.6,17.8,-2.7,14.9,3.7,-99.9,77,59,25,30.63,30.12,2,1,21,0.00
2012-2-11,42.7,25.4,13.3,15.1,9.5,5.2,74,54,26,30.38,29.99,2,0,18,0.01
2012-2-12,31.8,20.6,9.0,20.2,13.0,2.7,86,73,47,30.13,29.76,2,0,11,0.04
2012-2-13,31.9,19.9,10.6,16.9,10.5,4.8,80,67,41,29.98,29.75,3,1,18,0.00
2012-2-14,33.8,16.5,2.0,14.2,5.0,-4.9,80,62,34,30.20,29.78,2,1,17,0.01
2012-2-15,33.8,14.6,-2.5,11.9,1.2,-9.2,77,59,24,30.46,30.03,2,0,13,0.01
2012-2-16,34.9,13.2,-2.5,6.4,-1.4,-9.3,77,56,25,30.68,30.20,2,0,13,0.00
2012-2-17,38.3,14.6,-4.4,2.6,-6.2,-13.8,71,46,11,30.70,30.18,2,0,17,0.00
2012-2-18,37.1,14.1,-4.8,4.0,-5.6,-12.7,74,48,12,30.64,30.11,2,0,14,0.00
2012-2-19,29.5,15.9,0.4,15.0,2.8,-8.9,80,58,33,30.33,29.66,2,0,17,0.00
2012-2-20,22.8,12.4,5.0,6.5,-2.6,-11.4,74,52,29,30.39,29.71,3,2,19,0.04
2012-2-21,32.9,20.3,11.1,11.2,5.6,0.1,67,54,31,30.33,30.07,4,2,24,0.04
2012-2-22,38.7,29.4,21.5,19.7,16.5,10.8,71,59,43,30.21,29.54,4,2,21,0.00
2012-2-23,29.9,17.2,3.5,20.6,7.0,-6.6,82,65,38,30.44,29.49,4,1,22,0.01
2012-2-24,33.9,15.5,-5.0,2.6,-4.4,-12.9,69,44,21,30.66,30.36,4,1,20,0.05
2012-2-25,43.0,25.8,5.9,9.2,1.9,-3.8,71,38,18,30.39,29.63,5,2,26,0.01
2012-2-26,28.5,16.4,-4.9,-0.4,-9.2,-19.9,49,32,17,30.60,29.65,4,2,17,0.00
2012-2-27,38.9,19.4,-7.8,17.2,2.5,-19.6,68,49,29,30.73,29.68,3,1,20,0.00
2012-2-28,29.4,21.1,14.5,21.1,14.0,6.2,85,74,57,30.13,29.52,3,1,17,0.01
2012-2-29,31.4,20.8,12.4,15.1,7.6,3.9,74,58,33,30.32,29.86,3,1,19,0.19
2012-3-1,21.8,16.3,6.6,14.2,8.5,-99.9,81,75,61,30.02,29.72,3,1,19,0.00
2012-3-2,19.6,6.3,-2.2,3.1,-5.9,-13.1,74,58,38,30.60,30.01,3,1,17,0.00
2012-3-3,27.0,15.2,1.2,9.9,-0.3,-11.8,61,50,35,30.62,30.35,7,4,33,0.07
2012-3-4,45.9,29.9,16.2,15.6,8.0,0.7,61,43,16,30.44,30.14,4,1,26,0.18
2012-3-5,46.4,27.3,10.1,13.3,3.6,-2.3,64,40,17,30.53,29.97,3,1,20,0.00
2012-3-6,48.9,33.4,18.3,15.4,3.4,-3.2,58,32,12,30.01,29.41,3,1,20,0.00
2012-3-7,39.9,25.8,10.8,19.3,6.9,-1.4,72,49,19,30.20,29.41,3,1,22,0.00
2012-3-8,35.2,21.4,7.5,14.3,5.4,-3.1,84,55,22,30.75,30.15,4,1,17,0.02
2012-3-9,42.1,21.0,2.7,11.8,-2.4,-7.5,66,41,12,30.93,30.31,4,1,19,0.00
2012-3-10,43.9,25.9,6.8,20.2,8.1,-3.8,75,50,24,30.48,29.79,3,1,16,0.00
2012-3-11,47.3,28.9,12.8,12.5,7.4,-1.2,78,46,18,29.96,29.67,3,1,19,0.00
2012-3-12,46.4,31.5,16.1,15.7,9.0,5.5,67,42,20,30.13,29.72,3,1,19,0.00
2012-3-13,49.5,27.1,15.8,9.1,6.7,1.1,68,49,14,30.23,29.85,4,1,19,0.00
2012-3-14,51.4,36.2,18.6,18.2,2.1,-5.1,56,27,10,30.20,29.79,2,1,17,0.00
2012-3-15,53.0,33.0,14.6,24.2,11.3,4.6,70,45,18,30.38,29.95,2,0,13,0.00
2012-3-16,52.7,35.6,19.3,23.9,13.7,8.8,74,46,18,30.18,29.74,4,1,20,0.00
2012-3-17,49.8,34.1,18.3,16.7,9.0,-0.7,69,41,13,29.99,29.55,4,1,21,0.00
2012-3-18,43.3,28.4,16.1,26.1,15.8,6.1,84,61,31,29.65,29.32,4,1,19,0.00
2012-3-19,24.2,15.9,8.0,9.4,2.6,-2.1,72,57,33,29.93,29.50,2,0,12,0.11
2012-3-20,34.4,17.0,-1.8,2.9,-3.3,-9.8,73,45,18,30.35,29.92,3,1,17,0.04
2012-3-21,46.9,26.2,4.6,22.3,6.7,-4.2,76,48,22,30.36,29.96,4,1,21,0.01
2012-3-22,55.5,34.0,17.7,23.4,10.9,2.0,70,45,14,30.20,29.77,2,0,17,0.00
2012-3-23,59.6,38.0,21.4,22.8,12.2,2.7,65,42,10,30.25,29.87,2,0,12,0.00
2012-3-24,58.7,39.1,23.8,27.1,14.8,3.3,69,45,11,30.23,29.90,3,0,13,0.00
2012-3-25,58.3,40.4,25.9,27.5,17.7,8.9,71,47,14,30.18,29.73,3,1,18,0.00
2012-3-26,51.9,39.2,27.2,25.3,12.2,0.2,76,39,12,29.89,29.57,6,2,28,0.00
2012-5-30,66.7,49.7,30.2,25.5,15.6,9.9,52,29,12,29.92,29.68,2,1,19,0.00
2012-5-31,68.9,50.6,30.5,32.7,24.1,17.1,67,39,16,29.95,29.68,5,1,20,0.00
2012-6-1,72.0,53.9,36.5,33.2,28.6,25.5,72,43,18,29.78,29.58,2,1,17,0.00
2012-6-2,69.4,52.4,33.7,34.3,27.7,22.7,78,44,19,29.80,29.50,4,1,18,0.00
2012-6-3,75.2,53.9,38.6,49.7,32.1,22.1,84,50,14,29.90,29.58,2,0,12,0.25
2012-6-4,71.1,52.1,36.3,41.7,32.7,22.4,90,54,16,30.02,29.68,5,1,21,0.10
2012-6-5,64.8,50.9,35.4,43.9,34.8,26.4,92,60,24,29.84,29.49,2,0,16,0.00
2012-6-6,71.7,51.7,30.5,32.9,24.2,16.9,78,41,13,29.75,29.47,2,0,16,0.00
2012-6-7,73.3,53.7,32.2,28.7,19.7,10.3,64,33,9,29.77,29.58,2,0,19,0.00
2012-6-8,75.9,55.9,33.5,26.1,20.1,14.3,64,30,10,29.81,29.42,2,0,16,0.00
2012-6-9,73.7,55.6,35.6,25.0,18.1,11.9,59,27,11,29.55,29.32,3,1,19,0.01
2012-6-10,64.5,51.3,36.5,23.1,13.7,0.3,46,24,11,29.84,29.28,4,2,21,0.00
2012-6-11,68.0,47.7,25.2,19.5,8.3,-7.5,47,25,6,30.10,29.82,3,1,14,0.00
2012-6-12,71.3,43.8,29.8,20.9,-7.7,-99.9,56,25,9,30.18,29.44,4,1,17,0.00
2012-6-13,69.4,13.3,34.1,28.0,-72.0,-99.9,46,7,13,30.14,29.20,2,0,5,0.00
2012-6-14,74.8,55.5,33.1,26.9,14.9,4.8,51,24,7,30.08,29.43,6,1,13,0.00
2012-6-15,73.7,47.7,33.5,40.4,10.0,-99.9,71,35,10,29.93,29.55,3,0,11,0.00
2012-6-16,73.9,54.5,34.3,35.1,24.3,14.6,62,36,11,29.94,29.68,3,1,19,0.00
2012-6-17,75.3,57.9,38.0,30.0,23.0,18.7,62,31,12,29.80,29.41,3,1,20,0.00
2012-6-18,79.1,60.4,37.9,28.7,19.0,10.9,58,25,8,29.65,29.27,2,1,12,0.00
2012-6-19,77.9,55.3,35.9,25.6,16.5,11.0,50,26,8,29.56,29.32,3,1,17,0.00
2012-6-20,76.2,58.4,41.0,30.5,17.3,4.5,52,24,7,29.80,29.34,3,1,14,0.00
2012-6-21,80.2,55.4,33.5,41.9,25.4,5.2,81,41,7,29.94,29.66,4,1,17,0.00
2012-6-22,81.7,61.2,38.9,38.6,22.9,14.6,69,29,8,29.77,29.37,3,1,20,0.00
2012-6-23,78.4,36.2,48.4,29.9,-28.7,-99.9,38,14,13,29.75,29.30,4,0,13,0.00
2012-6-24,82.0,57.0,43.7,37.6,19.7,-99.9,56,31,12,30.05,29.34,4,0,12,0.00
2012-6-25,84.0,63.2,41.5,37.1,25.9,15.8,65,31,8,30.14,29.40,3,0,17,0.00
2012-6-26,79.8,57.3,42.5,56.0,37.5,26.5,93,55,17,29.87,29.48,2,0,14,0.69
2012-6-27,69.7,53.4,41.8,52.8,43.5,37.7,92,72,31,30.05,29.55,2,0,12,0.19
2012-6-28,46.5,46.0,45.8,41.9,41.1,40.7,84,83,82,29.85,29.83,0,0,2,0.00
2012-6-29,78.8,60.4,40.0,49.3,36.1,26.3,89,47,15,30.06,29.64,3,0,17,0.01
2012-6-30,79.5,59.0,39.7,41.3,31.9,19.1,76,43,11,29.83,29.56,1,0,10,0.00
2012-7-1,83.7,60.8,39.4,41.2,31.1,16.1,74,40,8,29.83,29.47,1,0,11,0.00
2012-7-2,78.3,57.2,41.6,53.0,36.7,28.2,76,51,17,29.77,29.51,3,0,13,0.02
2012-7-3,75.0,55.6,43.0,51.6,42.7,34.6,90,67,24,29.87,29.53,2,0,10,0.12
2012-7-4,72.0,54.2,42.2,51.5,43.2,34.6,91,71,27,29.90,29.59,2,0,12,0.09
2012-7-5,78.9,57.4,43.5,51.7,44.7,37.5,92,69,23,29.86,29.51,4,0,16,0.30
2012-7-6,54.3,45.8,41.7,48.3,43.2,39.5,92,91,80,29.93,29.61,0,0,6,0.00
2012-7-21,50.2,45.6,42.4,38.5,36.6,35.1,81,71,59,30.01,29.80,1,0,5,0.00
2012-7-22,70.0,58.5,51.7,45.9,37.8,-99.9,71,52,31,30.08,29.69,1,0,6,0.00
2012-7-23,77.1,57.3,44.6,53.0,43.1,35.6,85,62,25,30.11,29.69,4,0,16,0.14
2012-7-24,76.8,59.4,40.1,48.7,39.8,32.7,88,53,20,29.96,29.53,2,0,13,0.00
2012-7-25,73.7,58.6,44.9,44.2,40.1,34.0,84,54,24,29.79,29.53,2,0,14,0.00
2012-7-26,74.5,57.9,40.2,46.0,37.8,30.4,85,52,20,29.86,29.66,2,0,13,0.00
2012-7-27,71.5,56.0,40.4,48.3,40.3,34.9,87,59,28,29.98,29.81,3,0,16,0.02
2012-7-28,70.2,54.6,46.1,52.4,45.9,41.7,92,76,38,30.12,29.82,1,0,8,0.43
2012-7-29,76.6,59.1,46.1,54.0,46.2,37.0,93,67,26,30.04,29.69,3,0,16,0.10
2012-7-30,77.5,60.7,44.2,51.9,43.9,33.2,89,60,22,29.90,29.61,2,0,11,0.57
2012-7-31,74.0,51.5,46.8,57.1,39.1,-99.9,93,81,32,30.02,29.71,2,0,13,0.23
2012-8-1,72.3,56.5,42.3,52.4,43.8,37.9,92,67,31,30.08,29.74,2,0,16,0.08
2012-8-2,67.1,52.7,41.2,53.0,44.9,39.1,93,77,39,29.93,29.74,1,0,7,0.18
2012-8-3,73.5,55.3,38.6,53.2,39.9,30.8,92,63,22,29.98,29.64,1,0,10,0.02
2012-8-4,76.1,57.8,38.8,41.8,33.2,21.0,82,47,14,29.92,29.69,2,0,10,0.00
2012-8-5,67.5,54.4,38.9,54.4,42.3,35.0,88,66,36,30.09,29.82,2,0,12,0.11
2012-8-6,73.2,54.6,41.6,50.6,43.3,36.8,92,69,30,30.15,29.87,2,0,10,0.12
2012-8-7,71.0,53.9,44.4,53.9,46.2,39.9,92,78,35,30.06,29.84,2,0,8,0.18
2012-8-8,74.3,56.7,40.8,50.5,36.9,26.3,90,55,18,30.19,29.90,2,0,13,0.01
2012-8-9,76.5,54.9,39.1,49.8,39.6,32.9,91,63,23,30.23,29.83,4,0,16,0.25
2012-8-10,72.1,51.9,40.6,54.4,45.1,38.5,92,80,33,30.11,29.78,1,0,11,0.27
2012-8-11,72.1,56.1,43.3,52.4,42.0,34.9,90,63,30,29.98,29.72,2,0,13,0.05
2012-8-12,73.4,56.3,39.3,49.5,37.7,29.4,86,55,21,30.08,29.78,2,0,10,0.00
2012-8-13,61.4,49.8,40.4,47.5,42.6,36.6,92,77,45,30.00,29.81,2,0,8,0.24
2012-8-14,70.5,51.0,38.1,50.3,40.5,25.1,93,74,19,30.05,29.73,1,0,8,0.11
2012-8-15,69.4,52.3,37.3,48.7,38.3,33.6,91,63,27,29.98,29.70,3,0,19,0.01
2012-8-16,70.1,53.6,37.6,47.1,38.7,30.7,89,61,25,30.04,29.77,3,0,17,0.00
2012-8-17,71.1,56.0,40.6,44.7,36.8,26.7,86,54,22,29.96,29.67,2,0,16,0.00
2012-8-18,74.5,55.9,39.5,43.6,34.5,17.9,81,52,13,29.93,29.66,3,1,19,0.00
2012-8-19,76.2,54.9,36.1,41.4,28.7,-99.9,85,47,10,29.98,29.68,5,0,14,0.00
2012-8-20,61.4,47.0,38.6,47.0,33.5,-99.9,89,68,38,29.99,29.72,2,0,8,0.02
2012-8-21,74.2,54.6,36.1,44.3,35.4,29.1,92,55,20,30.06,29.71,3,0,11,0.00
2012-8-22,70.1,56.3,41.3,44.1,38.5,33.4,79,54,28,29.88,29.55,1,0,8,0.00
2012-8-23,64.2,52.7,46.1,50.2,44.1,40.7,93,74,44,29.80,29.60,2,0,10,0.53
2012-8-24,57.9,49.6,43.5,47.9,43.7,39.0,93,81,53,29.84,29.62,2,0,8,0.21
2012-8-25,71.3,52.0,37.7,49.3,37.9,30.1,92,64,24,29.92,29.69,1,0,11,0.01
2012-8-26,72.7,54.5,37.7,49.0,38.2,30.2,87,60,22,30.07,29.80,1,0,10,0.01
2012-8-27,76.1,56.5,39.2,50.2,40.1,34.6,86,58,23,30.16,29.83,1,0,7,0.00
2012-8-28,76.2,53.5,43.5,51.4,43.2,35.7,91,73,23,30.12,29.82,2,0,10,0.18
2012-8-29,75.2,53.3,40.6,51.2,43.1,32.6,92,73,22,30.09,29.68,1,0,10,0.07
2012-8-30,73.8,54.7,41.2,52.3,41.8,31.4,88,67,22,29.98,29.65,2,0,14,0.10
2012-8-31,68.6,53.6,39.1,47.1,39.8,34.7,87,63,34,30.08,29.77,2,0,10,0.00
2012-9-1,71.2,53.6,38.8,49.9,39.4,34.1,86,62,28,30.04,29.74,2,0,11,0.04
2012-9-2,69.0,52.5,41.6,48.9,41.4,33.1,90,70,28,30.03,29.76,1,0,11,0.13
2012-9-3,70.2,54.4,41.0,48.0,38.1,29.7,92,60,25,30.04,29.79,2,0,17,0.00
2012-9-4,72.1,52.7,34.4,37.2,28.8,24.3,74,45,18,30.14,29.81,3,1,17,0.00
2012-9-5,72.4,51.4,33.4,34.2,24.0,14.3,75,41,12,30.14,29.83,2,0,11,0.00
2012-9-6,74.1,52.4,32.0,34.3,25.0,18.0,67,40,13,30.14,29.66,2,0,13,0.00
2012-9-7,66.4,52.8,39.0,43.4,35.1,25.0,81,55,25,30.06,29.67,2,0,18,0.00
2012-9-8,66.9,47.8,30.9,35.2,30.6,22.9,88,57,24,30.27,29.97,3,1,13,0.00
2012-9-9,72.1,50.1,32.0,37.3,27.1,20.3,88,49,16,30.25,29.89,3,0,11,0.00
2012-9-10,70.9,52.0,36.0,38.0,29.9,23.8,74,46,21,30.08,29.71,2,0,10,0.00
2012-9-11,65.0,50.6,41.1,46.6,37.6,29.0,92,64,33,29.84,29.69,2,0,13,0.25
2012-9-12,45.4,42.6,39.5,41.9,38.4,-99.9,93,89,80,30.17,29.66,3,0,12,0.38
2012-9-13,57.7,44.3,31.3,38.2,31.8,25.1,93,66,29,30.40,30.14,3,1,12,0.00
2012-9-14,62.0,44.2,30.3,33.4,24.4,13.0,88,54,16,30.46,30.17,3,1,12,0.01
2012-9-15,71.5,48.1,29.5,30.4,22.3,13.0,76,45,11,30.35,29.93,2,0,10,0.00
2012-9-16,69.8,48.0,29.6,30.1,21.0,13.4,73,41,13,30.25,29.81,3,0,13,0.00
2012-9-17,54.4,39.4,29.4,35.8,26.5,18.0,83,61,34,30.25,29.77,3,0,12,0.06
2012-9-18,67.9,46.2,29.3,30.5,24.2,19.3,80,49,17,30.30,29.91,2,0,14,0.00
2012-9-19,70.1,48.6,30.6,29.7,21.4,14.4,70,40,12,30.25,29.89,2,0,10,0.00
2012-9-20,66.4,46.7,28.8,28.5,20.1,12.7,71,42,13,30.24,29.90,3,0,12,0.00
2012-9-21,71.7,48.2,30.2,28.7,20.9,12.9,69,41,11,30.22,29.82,2,0,11,0.00
2012-9-22,71.7,47.9,29.7,28.9,22.4,14.9,75,44,12,30.28,29.88,2,0,12,0.00
2012-9-23,65.2,49.1,33.7,32.5,24.5,19.0,62,41,20,30.17,29.83,1,0,13,0.00
2012-9-24,56.0,41.6,36.3,41.5,35.2,27.3,92,79,48,30.06,29.80,4,0,16,0.74
2012-9-25,53.9,39.0,30.4,39.5,33.8,27.8,92,83,46,29.99,29.70,2,0,11,0.14
2012-9-26,54.2,35.4,28.4,36.3,21.6,-99.9,92,72,35,30.13,29.87,1,0,8,0.11
2012-9-27,52.7,38.4,30.1,37.7,30.7,26.5,93,76,43,30.16,29.93,2,0,12,0.02
2012-9-28,59.0,40.9,27.2,35.0,28.6,24.4,89,66,31,30.23,29.92,3,0,10,0.00
2012-9-29,65.4,44.8,29.3,35.6,27.1,21.3,90,57,20,30.19,29.82,2,0,12,0.00
2012-9-30,59.9,41.1,29.0,33.1,23.3,-99.9,84,57,21,30.17,29.91,4,0,16,0.00
2012-10-1,61.9,42.4,28.1,31.9,24.4,-99.9,82,56,23,30.30,29.91,3,1,12,0.00
2012-10-2,67.1,45.2,28.5,28.8,21.5,7.3,78,47,10,30.15,29.74,2,1,16,0.00
2012-10-3,64.5,45.5,30.4,24.1,16.1,-99.9,72,38,15,30.01,29.62,3,1,25,0.00
2012-10-4,60.1,44.3,33.0,34.9,24.2,16.2,90,50,21,29.98,29.72,3,1,21,0.15
2012-10-5,54.8,42.2,28.1,34.2,23.0,11.9,89,53,19,29.89,29.63,3,1,20,0.06
2012-10-6,50.5,37.5,23.7,24.4,7.2,-9.0,80,35,8,30.01,29.65,3,1,19,0.00
2012-10-7,52.0,33.0,21.0,19.3,6.2,-7.2,87,40,9,30.18,29.82,3,1,18,0.00
2012-10-8,55.8,37.1,20.6,10.1,0.9,-10.6,49,26,7,30.15,29.73,3,1,22,0.00
2012-10-9,59.2,44.1,31.3,17.2,12.2,6.2,50,29,15,29.97,29.64,4,2,36,0.00
2012-10-10,60.0,41.4,26.9,26.0,15.6,-99.9,64,41,22,30.19,29.77,3,1,12,0.00
2012-10-11,63.8,45.6,29.2,36.0,21.0,-99.9,83,43,15,30.08,29.75,2,1,13,0.05
2012-10-12,51.3,37.6,29.5,40.2,33.3,25.8,93,85,55,29.98,29.72,2,0,14,0.17
2012-10-13,42.4,32.1,25.3,29.7,25.8,20.9,87,78,56,30.21,29.76,1,0,14,0.03
2012-10-14,54.2,37.2,28.2,30.1,20.7,-99.9,85,62,33,30.37,30.01,2,0,11,0.00
2012-10-15,60.5,41.3,28.7,22.0,17.8,12.6,64,42,18,30.27,29.80,2,1,11,0.00
2012-10-16,59.4,44.1,28.9,31.8,21.7,17.1,72,45,20,30.00,29.33,4,2,20,0.00
2012-10-17,49.6,38.3,30.6,32.8,4.9,-3.5,78,28,11,29.98,29.33,4,2,17,0.04
2012-10-18,54.3,38.5,28.3,16.6,9.0,0.9,56,31,16,30.15,29.88,4,2,28,0.00
2012-10-19,61.3,40.2,23.6,17.6,11.7,1.5,72,38,11,30.26,29.76,3,1,17,0.00
2012-10-20,61.1,40.2,26.7,16.6,11.4,5.4,59,35,12,30.03,29.64,4,1,21,0.00
2012-10-21,59.1,39.9,27.7,23.6,18.0,10.2,71,46,18,30.05,29.63,2,0,12,0.00
2012-10-22,58.8,39.4,27.0,22.8,17.9,13.3,73,47,17,30.05,29.63,3,1,14,0.00
2012-10-23,57.3,41.7,29.9,30.3,19.2,8.3,82,45,14,29.86,29.59,4,1,18,0.03
2012-10-24,54.3,36.3,23.3,27.5,18.5,11.6,83,52,21,29.83,29.49,5,1,21,0.00
2012-10-25,29.0,22.9,17.2,16.8,9.7,3.2,77,57,37,30.32,29.71,3,1,17,0.02
2012-10-26,33.6,19.4,3.2,9.4,0.0,-5.3,75,46,22,30.65,30.16,2,1,12,0.04
2012-10-27,43.2,29.7,22.0,9.8,4.3,-5.1,47,34,20,30.32,29.95,4,2,17,0.00
2012-10-28,52.8,37.1,27.6,21.2,16.6,7.2,65,45,25,30.23,29.88,2,1,16,0.00
2012-10-29,56.1,37.5,26.4,23.4,17.7,-99.9,70,50,21,30.35,29.93,3,1,13,0.00
2012-10-30,59.6,35.2,22.8,20.7,16.4,4.5,77,53,11,30.39,29.96,2,0,8,0.00
2012-10-31,59.0,35.1,23.1,21.6,15.1,10.7,70,49,16,30.42,29.98,3,0,12,0.00
2012-11-1,57.6,36.2,23.2,17.8,10.8,1.1,68,42,10,30.30,29.84,3,0,13,0.00
2012-11-2,46.3,34.5,23.4,13.4,7.9,4.6,57,35,18,30.18,29.85,2,0,13,0.00
2012-11-3,52.0,32.5,21.2,12.4,8.3,1.6,61,40,13,30.38,30.06,2,0,10,0.00
2012-11-4,50.4,32.4,21.7,17.4,13.6,8.5,70,48,22,30.48,30.11,2,0,17,0.00
2012-11-5,55.1,34.6,22.1,23.2,17.9,13.9,82,55,20,30.47,30.11,2,0,13,0.00
2012-11-6,59.6,35.7,23.3,17.5,13.7,8.9,72,47,14,30.51,30.07,2,0,12,0.00
2012-11-7,59.7,36.2,21.9,36.8,11.4,5.9,63,41,12,30.42,29.89,2,0,12,0.00
2012-11-8,56.0,33.5,19.7,16.4,11.4,6.4,72,45,15,30.26,29.56,2,0,13,0.00
2012-11-9,48.6,37.6,31.9,28.1,21.2,8.7,84,53,29,29.90,29.41,4,1,17,0.02
2012-11-10,31.8,22.2,11.3,25.0,11.5,-1.3,85,64,44,29.91,29.32,3,1,18,0.02
2012-11-11,16.8,10.0,6.1,2.8,-2.3,-8.2,74,57,37,30.63,29.82,3,1,16,0.00
2012-11-12,38.3,20.1,4.8,11.9,1.6,-14.2,67,47,24,30.79,30.28,3,1,10,0.02
2012-11-13,40.8,24.4,14.9,14.2,8.7,3.9,73,53,27,30.54,30.22,2,1,18,0.01
2012-11-14,46.2,29.6,14.5,7.0,1.3,-5.1,63,32,14,30.44,30.11,3,2,14,0.00
2012-11-15,45.6,27.6,15.3,12.7,5.3,-1.4,61,41,19,30.57,30.11,3,1,14,0.00
2012-11-16,49.1,28.0,12.7,17.4,10.4,3.6,68,51,17,30.53,30.04,3,0,17,0.00
2012-11-17,49.2,32.4,24.4,19.1,16.2,11.5,75,55,22,30.29,29.94,2,0,11,0.00
2012-11-18,41.6,29.4,21.4,22.0,17.1,12.4,80,61,34,30.22,29.92,3,1,17,0.00
2012-11-19,45.9,30.3,21.1,17.8,14.4,7.6,70,54,22,30.48,30.15,2,0,12,0.00
2012-11-20,51.6,30.2,16.9,18.1,10.9,6.5,69,48,19,30.60,30.12,2,0,12,0.00
2012-11-21,53.2,32.2,17.0,12.5,4.5,-3.6,72,37,10,30.40,29.82,2,1,16,0.00
2012-11-22,49.7,34.0,20.9,14.2,7.7,-99.9,64,38,15,30.43,29.81,3,1,17,0.00
2012-11-23,49.3,28.6,18.9,13.1,8.8,2.8,65,47,16,30.66,30.31,2,0,11,0.00
2012-11-24,52.0,29.9,16.6,8.0,4.1,-1.4,61,38,11,30.54,30.02,3,1,20,0.00
2012-11-25,48.1,30.9,16.4,6.5,1.8,-99.9,59,33,14,30.24,29.80,3,1,12,0.00
2012-11-26,44.4,28.0,17.8,8.2,-0.4,-99.9,60,33,11,30.48,29.84,2,0,12,0.00
2012-11-27,47.3,29.3,16.1,2.1,-8.3,-18.5,45,22,7,30.48,30.21,3,1,12,0.00
2012-11-28,46.1,27.3,12.9,9.0,0.6,-6.4,49,33,13,30.57,30.06,2,1,14,0.00
2012-11-29,46.6,32.4,21.3,18.5,14.5,-99.9,73,51,28,30.22,29.94,3,1,19,0.00
2012-11-30,49.3,36.0,22.1,20.5,14.4,9.9,72,44,21,30.28,29.78,4,2,18,0.00
2012-12-1,47.9,35.0,22.8,18.6,13.9,-99.9,60,45,27,30.15,29.77,4,1,18,0.00
2012-12-2,49.5,33.6,19.6,23.9,9.7,-1.6,72,42,12,30.24,29.67,4,1,17,0.00
2012-12-3,42.9,31.8,18.5,25.9,14.9,3.5,75,51,23,30.31,29.63,3,1,20,0.05
2012-12-4,45.4,27.4,12.3,14.5,5.4,-4.1,64,42,16,30.66,30.24,3,1,13,0.00
2012-12-5,49.6,34.4,21.6,22.7,14.7,-99.9,81,50,20,30.39,29.76,4,2,16,0.00
2012-12-6,42.0,32.5,27.9,23.6,20.5,15.7,75,61,44,29.94,29.74,2,1,14,0.00
2012-12-7,39.0,28.7,24.9,16.2,10.5,-99.9,65,49,27,29.95,29.75,3,2,17,0.00
2012-12-8,30.8,24.2,19.3,17.3,12.8,-99.9,83,65,43,29.89,29.69,4,2,14,0.00
2012-12-9,19.1,5.8,-10.8,14.6,-2.0,-18.7,83,70,50,30.59,29.74,3,1,12,0.00
2012-12-10,16.2,8.2,-4.4,8.0,-0.3,-14.6,76,68,57,30.66,30.15,2,1,14,0.00
2012-12-11,23.2,12.5,7.6,9.0,2.1,-3.0,74,63,46,30.34,30.16,4,1,13,0.09
2012-12-12,38.1,21.7,6.1,14.1,5.1,-99.9,76,54,31,30.31,30.00,3,2,13,0.09
2012-12-21,41.9,10.3,0.0,8.5,-16.8,-99.9,73,49,16,30.89,30.20,5,1,11,0.06
2012-12-22,41.4,13.6,6.4,5.4,-20.4,-99.9,60,36,11,30.67,30.12,4,2,12,0.02
2012-12-23,27.2,16.9,6.7,14.6,4.6,-6.2,68,58,48,30.54,30.04,2,1,12,0.00
2012-12-24,26.5,19.3,9.2,16.2,11.2,3.2,82,71,51,30.08,29.71,2,0,11,0.00
2012-12-25,29.6,7.4,-6.3,9.1,-1.8,-13.5,79,67,40,30.64,29.90,4,0,8,0.11
2012-12-26,25.4,14.8,-0.1,16.8,7.4,-7.0,83,72,60,30.26,29.68,3,1,12,0.00
2012-12-27,23.0,7.0,9.4,7.3,-44.5,-99.9,78,37,48,29.92,29.67,2,0,11,0.00
2012-12-28,18.6,0.3,2.8,-2.3,-95.9,-99.9,62,3,39,30.45,28.93,5,0,8,0.00
2012-12-29,-200.0,0.0,200.0,-99.9,-99.9,-99.9,0,0,100,30.17,29.21,0,0,0,0.00
2012-12-30,-200.0,0.0,200.0,-99.9,-99.9,-99.9,0,0,100,29.21,29.04,0,0,0,0.00
2012-12-31,17.4,2.7,-4.8,9.2,-55.6,-99.9,79,35,63,30.62,28.95,2,0,7,0.00
2013-1-1,19.0,-0.9,-10.5,-1.1,-14.3,-99.9,73,60,38,30.86,30.37,1,0,10,0.00